sensor_id;sensor_type;location;lat;lon;timestamp;P1;durP1;ratioP1;P2;durP2;ratioP2
31732;SDS011;18312;51.486;7.144;2023-01-01T00:01:45;18.80;;;9.15;;
31732;SDS011;18312;51.486;7.144;2023-01-01T00:04:14;18.15;;;9.07;;
31732;SDS011;18312;51.486;7.144;2023-01-01T00:06:41;18.52;;;9.07;;
31732;SDS011;18312;51.486;7.144;2023-01-01T00:09:09;24.38;;;9.70;;
31732;SDS011;18312;51.486;7.144;2023-01-01T00:11:53;23.70;;;8.65;;
31732;SDS011;18312;51.486;7.144;2023-01-01T00:14:20;21.30;;;9.63;;
31732;SDS011;18312;51.486;7.144;2023-01-01T00:16:47;22.45;;;10.52;;
31732;SDS011;18312;51.486;7.144;2023-01-01T00:19:15;19.67;;;10.35;;
31732;SDS011;18312;51.486;7.144;2023-01-01T00:21:42;17.13;;;9.70;;
31732;SDS011;18312;51.486;7.144;2023-01-01T00:24:10;15.98;;;8.55;;
31732;SDS011;18312;51.486;7.144;2023-01-01T00:26:37;25.10;;;10.02;;
31732;SDS011;18312;51.486;7.144;2023-01-01T00:29:04;25.15;;;10.07;;
31732;SDS011;18312;51.486;7.144;2023-01-01T00:31:31;29.02;;;10.98;;
31732;SDS011;18312;51.486;7.144;2023-01-01T00:34:00;25.13;;;10.27;;
31732;SDS011;18312;51.486;7.144;2023-01-01T00:36:28;26.58;;;10.70;;
31732;SDS011;18312;51.486;7.144;2023-01-01T00:38:55;22.63;;;11.20;;
31732;SDS011;18312;51.486;7.144;2023-01-01T00:41:22;24.13;;;11.73;;
31732;SDS011;18312;51.486;7.144;2023-01-01T00:43:49;20.92;;;10.45;;
31732;SDS011;18312;51.486;7.144;2023-01-01T00:46:16;28.27;;;12.50;;
31732;SDS011;18312;51.486;7.144;2023-01-01T00:48:42;25.80;;;13.00;;
31732;SDS011;18312;51.486;7.144;2023-01-01T00:51:10;25.65;;;13.73;;
31732;SDS011;18312;51.486;7.144;2023-01-01T00:53:39;25.73;;;14.77;;
31732;SDS011;18312;51.486;7.144;2023-01-01T00:56:06;33.92;;;15.88;;
31732;SDS011;18312;51.486;7.144;2023-01-01T00:58:32;35.70;;;16.48;;
31732;SDS011;18312;51.486;7.144;2023-01-01T01:00:59;26.23;;;14.82;;
31732;SDS011;18312;51.486;7.144;2023-01-01T01:03:26;32.90;;;15.32;;
31732;SDS011;18312;51.486;7.144;2023-01-01T01:05:53;22.40;;;13.25;;
31732;SDS011;18312;51.486;7.144;2023-01-01T01:08:20;32.88;;;15.18;;
31732;SDS011;18312;51.486;7.144;2023-01-01T01:10:48;24.83;;;12.68;;
31732;SDS011;18312;51.486;7.144;2023-01-01T01:13:14;17.33;;;12.60;;
31732;SDS011;18312;51.486;7.144;2023-01-01T01:15:41;30.45;;;13.45;;
31732;SDS011;18312;51.486;7.144;2023-01-01T01:18:08;18.35;;;9.15;;
31732;SDS011;18312;51.486;7.144;2023-01-01T01:20:35;19.55;;;9.80;;
31732;SDS011;18312;51.486;7.144;2023-01-01T01:23:01;17.38;;;9.25;;
31732;SDS011;18312;51.486;7.144;2023-01-01T01:25:28;20.08;;;9.32;;
31732;SDS011;18312;51.486;7.144;2023-01-01T01:27:56;19.05;;;9.73;;
31732;SDS011;18312;51.486;7.144;2023-01-01T01:30:23;17.02;;;8.57;;
31732;SDS011;18312;51.486;7.144;2023-01-01T01:32:50;15.10;;;8.70;;
31732;SDS011;18312;51.486;7.144;2023-01-01T01:35:16;14.60;;;8.15;;
31732;SDS011;18312;51.486;7.144;2023-01-01T01:37:43;15.65;;;8.07;;
31732;SDS011;18312;51.486;7.144;2023-01-01T01:40:10;15.25;;;7.15;;
31732;SDS011;18312;51.486;7.144;2023-01-01T01:42:40;15.13;;;7.82;;
31732;SDS011;18312;51.486;7.144;2023-01-01T01:45:12;15.95;;;8.05;;
31732;SDS011;18312;51.486;7.144;2023-01-01T01:47:41;20.97;;;8.03;;
31732;SDS011;18312;51.486;7.144;2023-01-01T01:50:15;12.43;;;7.53;;
31732;SDS011;18312;51.486;7.144;2023-01-01T01:52:52;12.93;;;7.10;;
31732;SDS011;18312;51.486;7.144;2023-01-01T01:55:25;11.73;;;7.03;;
31732;SDS011;18312;51.486;7.144;2023-01-01T01:57:54;12.23;;;6.85;;
31732;SDS011;18312;51.486;7.144;2023-01-01T02:00:23;15.43;;;6.90;;
31732;SDS011;18312;51.486;7.144;2023-01-01T02:02:50;13.68;;;6.03;;
31732;SDS011;18312;51.486;7.144;2023-01-01T02:05:21;10.77;;;5.97;;
31732;SDS011;18312;51.486;7.144;2023-01-01T02:07:50;10.50;;;4.90;;
31732;SDS011;18312;51.486;7.144;2023-01-01T02:10:18;9.60;;;5.60;;
31732;SDS011;18312;51.486;7.144;2023-01-01T02:12:45;10.02;;;5.70;;
31732;SDS011;18312;51.486;7.144;2023-01-01T02:15:12;11.45;;;5.70;;
31732;SDS011;18312;51.486;7.144;2023-01-01T02:17:42;10.75;;;4.28;;
31732;SDS011;18312;51.486;7.144;2023-01-01T02:20:20;11.95;;;5.25;;
31732;SDS011;18312;51.486;7.144;2023-01-01T02:23:00;8.27;;;4.30;;
31732;SDS011;18312;51.486;7.144;2023-01-01T02:26:00;7.90;;;3.83;;
31732;SDS011;18312;51.486;7.144;2023-01-01T02:28:51;6.40;;;3.27;;
31732;SDS011;18312;51.486;7.144;2023-01-01T02:31:25;10.57;;;3.20;;
31732;SDS011;18312;51.486;7.144;2023-01-01T02:33:55;7.40;;;2.63;;
31732;SDS011;18312;51.486;7.144;2023-01-01T02:36:26;7.20;;;2.22;;
31732;SDS011;18312;51.486;7.144;2023-01-01T02:38:56;6.40;;;1.65;;
31732;SDS011;18312;51.486;7.144;2023-01-01T02:43:56;4.50;;;1.35;;
31732;SDS011;18312;51.486;7.144;2023-01-01T02:46:23;4.18;;;1.17;;
31732;SDS011;18312;51.486;7.144;2023-01-01T02:48:56;2.45;;;0.85;;
31732;SDS011;18312;51.486;7.144;2023-01-01T02:51:24;2.33;;;0.85;;
31732;SDS011;18312;51.486;7.144;2023-01-01T02:53:59;2.95;;;1.38;;
31732;SDS011;18312;51.486;7.144;2023-01-01T02:56:32;5.53;;;0.98;;
31732;SDS011;18312;51.486;7.144;2023-01-01T02:59:10;4.30;;;0.95;;
31732;SDS011;18312;51.486;7.144;2023-01-01T03:02:03;6.13;;;1.20;;
31732;SDS011;18312;51.486;7.144;2023-01-01T03:04:40;5.30;;;0.90;;
31732;SDS011;18312;51.486;7.144;2023-01-01T03:07:16;2.92;;;1.17;;
31732;SDS011;18312;51.486;7.144;2023-01-01T03:09:53;6.80;;;2.20;;
31732;SDS011;18312;51.486;7.144;2023-01-01T03:12:25;3.10;;;0.90;;
31732;SDS011;18312;51.486;7.144;2023-01-01T03:15:06;3.47;;;1.00;;
31732;SDS011;18312;51.486;7.144;2023-01-01T03:17:40;5.57;;;1.45;;
31732;SDS011;18312;51.486;7.144;2023-01-01T03:20:13;5.82;;;1.20;;
31732;SDS011;18312;51.486;7.144;2023-01-01T03:22:45;5.55;;;1.15;;
31732;SDS011;18312;51.486;7.144;2023-01-01T03:25:15;2.95;;;0.90;;
31732;SDS011;18312;51.486;7.144;2023-01-01T03:27:46;3.72;;;0.82;;
31732;SDS011;18312;51.486;7.144;2023-01-01T03:30:17;1.52;;;0.70;;
31732;SDS011;18312;51.486;7.144;2023-01-01T03:32:46;6.03;;;0.80;;
31732;SDS011;18312;51.486;7.144;2023-01-01T03:35:29;4.10;;;1.08;;
31732;SDS011;18312;51.486;7.144;2023-01-01T03:38:02;4.50;;;1.15;;
31732;SDS011;18312;51.486;7.144;2023-01-01T03:40:34;5.85;;;1.27;;
31732;SDS011;18312;51.486;7.144;2023-01-01T03:43:05;7.55;;;1.15;;
31732;SDS011;18312;51.486;7.144;2023-01-01T03:45:37;4.35;;;0.80;;
31732;SDS011;18312;51.486;7.144;2023-01-01T03:48:07;1.67;;;0.60;;
31732;SDS011;18312;51.486;7.144;2023-01-01T03:50:38;4.50;;;1.20;;
31732;SDS011;18312;51.486;7.144;2023-01-01T03:53:16;2.38;;;1.10;;
31732;SDS011;18312;51.486;7.144;2023-01-01T03:55:52;4.10;;;0.82;;
31732;SDS011;18312;51.486;7.144;2023-01-01T03:58:30;1.95;;;0.82;;
31732;SDS011;18312;51.486;7.144;2023-01-01T04:01:03;3.03;;;1.08;;
31732;SDS011;18312;51.486;7.144;2023-01-01T04:03:36;6.30;;;1.00;;
31732;SDS011;18312;51.486;7.144;2023-01-01T04:08:32;5.35;;;1.23;;
31732;SDS011;18312;51.486;7.144;2023-01-01T04:11:02;2.03;;;0.90;;
31732;SDS011;18312;51.486;7.144;2023-01-01T04:13:54;4.95;;;0.80;;
31732;SDS011;18312;51.486;7.144;2023-01-01T04:16:22;2.28;;;0.75;;
31732;SDS011;18312;51.486;7.144;2023-01-01T04:18:48;4.50;;;1.23;;
31732;SDS011;18312;51.486;7.144;2023-01-01T04:21:15;6.10;;;0.82;;
31732;SDS011;18312;51.486;7.144;2023-01-01T04:23:42;3.05;;;1.13;;
31732;SDS011;18312;51.486;7.144;2023-01-01T04:26:10;3.47;;;0.73;;
31732;SDS011;18312;51.486;7.144;2023-01-01T04:28:39;6.53;;;1.30;;
31732;SDS011;18312;51.486;7.144;2023-01-01T04:31:06;5.18;;;0.88;;
31732;SDS011;18312;51.486;7.144;2023-01-01T04:33:34;2.92;;;1.00;;
31732;SDS011;18312;51.486;7.144;2023-01-01T04:36:02;6.15;;;1.25;;
31732;SDS011;18312;51.486;7.144;2023-01-01T04:38:30;2.72;;;0.82;;
31732;SDS011;18312;51.486;7.144;2023-01-01T04:40:58;4.18;;;1.20;;
31732;SDS011;18312;51.486;7.144;2023-01-01T04:43:26;1.42;;;0.68;;
31732;SDS011;18312;51.486;7.144;2023-01-01T04:45:56;3.75;;;0.68;;
31732;SDS011;18312;51.486;7.144;2023-01-01T04:48:23;4.15;;;0.80;;
31732;SDS011;18312;51.486;7.144;2023-01-01T04:50:56;4.35;;;1.38;;
31732;SDS011;18312;51.486;7.144;2023-01-01T04:53:24;3.17;;;0.82;;
31732;SDS011;18312;51.486;7.144;2023-01-01T04:55:53;11.15;;;0.93;;
31732;SDS011;18312;51.486;7.144;2023-01-01T04:58:20;2.78;;;1.40;;
31732;SDS011;18312;51.486;7.144;2023-01-01T05:00:48;2.42;;;1.00;;
31732;SDS011;18312;51.486;7.144;2023-01-01T05:03:15;3.25;;;0.93;;
31732;SDS011;18312;51.486;7.144;2023-01-01T05:05:42;2.47;;;0.90;;
31732;SDS011;18312;51.486;7.144;2023-01-01T05:08:10;3.25;;;1.02;;
31732;SDS011;18312;51.486;7.144;2023-01-01T05:10:36;2.58;;;1.10;;
31732;SDS011;18312;51.486;7.144;2023-01-01T05:13:05;3.92;;;0.95;;
31732;SDS011;18312;51.486;7.144;2023-01-01T05:15:34;3.83;;;1.73;;
31732;SDS011;18312;51.486;7.144;2023-01-01T05:18:01;2.13;;;1.00;;
31732;SDS011;18312;51.486;7.144;2023-01-01T05:20:28;3.88;;;0.77;;
31732;SDS011;18312;51.486;7.144;2023-01-01T05:22:54;1.23;;;0.70;;
31732;SDS011;18312;51.486;7.144;2023-01-01T05:25:22;4.13;;;0.80;;
31732;SDS011;18312;51.486;7.144;2023-01-01T05:27:49;8.63;;;1.08;;
31732;SDS011;18312;51.486;7.144;2023-01-01T05:30:16;4.22;;;0.80;;
31732;SDS011;18312;51.486;7.144;2023-01-01T05:32:43;3.08;;;0.93;;
31732;SDS011;18312;51.486;7.144;2023-01-01T05:35:10;3.25;;;0.95;;
31732;SDS011;18312;51.486;7.144;2023-01-01T05:37:36;3.42;;;1.17;;
31732;SDS011;18312;51.486;7.144;2023-01-01T05:40:04;4.40;;;0.80;;
31732;SDS011;18312;51.486;7.144;2023-01-01T05:42:32;5.97;;;0.80;;
31732;SDS011;18312;51.486;7.144;2023-01-01T05:45:00;5.22;;;1.02;;
31732;SDS011;18312;51.486;7.144;2023-01-01T05:47:26;3.30;;;1.13;;
31732;SDS011;18312;51.486;7.144;2023-01-01T05:49:53;6.95;;;1.27;;
31732;SDS011;18312;51.486;7.144;2023-01-01T05:52:20;2.10;;;1.23;;
31732;SDS011;18312;51.486;7.144;2023-01-01T05:54:47;4.18;;;1.00;;
31732;SDS011;18312;51.486;7.144;2023-01-01T05:57:14;7.03;;;1.58;;
31732;SDS011;18312;51.486;7.144;2023-01-01T05:59:42;8.48;;;1.23;;
31732;SDS011;18312;51.486;7.144;2023-01-01T06:02:08;1.98;;;0.93;;
31732;SDS011;18312;51.486;7.144;2023-01-01T06:04:35;4.88;;;1.00;;
31732;SDS011;18312;51.486;7.144;2023-01-01T06:07:02;4.43;;;1.55;;
31732;SDS011;18312;51.486;7.144;2023-01-01T06:09:28;5.30;;;1.15;;
31732;SDS011;18312;51.486;7.144;2023-01-01T06:11:55;2.25;;;0.70;;
31732;SDS011;18312;51.486;7.144;2023-01-01T06:14:22;3.35;;;0.93;;
31732;SDS011;18312;51.486;7.144;2023-01-01T06:16:50;4.18;;;1.35;;
31732;SDS011;18312;51.486;7.144;2023-01-01T06:19:16;4.05;;;1.00;;
31732;SDS011;18312;51.486;7.144;2023-01-01T06:21:43;3.08;;;1.30;;
31732;SDS011;18312;51.486;7.144;2023-01-01T06:24:10;6.72;;;1.05;;
31732;SDS011;18312;51.486;7.144;2023-01-01T06:26:37;5.18;;;1.15;;
31732;SDS011;18312;51.486;7.144;2023-01-01T06:29:04;2.67;;;0.90;;
31732;SDS011;18312;51.486;7.144;2023-01-01T06:31:30;3.10;;;0.82;;
31732;SDS011;18312;51.486;7.144;2023-01-01T06:33:58;6.18;;;1.42;;
31732;SDS011;18312;51.486;7.144;2023-01-01T06:36:25;4.35;;;1.88;;
31732;SDS011;18312;51.486;7.144;2023-01-01T06:38:53;5.57;;;0.80;;
31732;SDS011;18312;51.486;7.144;2023-01-01T06:41:21;2.53;;;0.90;;
31732;SDS011;18312;51.486;7.144;2023-01-01T06:43:49;4.95;;;1.10;;
31732;SDS011;18312;51.486;7.144;2023-01-01T06:46:16;5.38;;;1.15;;
31732;SDS011;18312;51.486;7.144;2023-01-01T06:48:45;5.35;;;1.33;;
31732;SDS011;18312;51.486;7.144;2023-01-01T06:51:14;2.53;;;0.90;;
31732;SDS011;18312;51.486;7.144;2023-01-01T06:53:43;2.90;;;1.00;;
31732;SDS011;18312;51.486;7.144;2023-01-01T06:56:10;3.03;;;1.23;;
31732;SDS011;18312;51.486;7.144;2023-01-01T06:58:37;4.70;;;1.10;;
31732;SDS011;18312;51.486;7.144;2023-01-01T07:01:05;3.72;;;1.10;;
31732;SDS011;18312;51.486;7.144;2023-01-01T07:03:34;5.50;;;1.20;;
31732;SDS011;18312;51.486;7.144;2023-01-01T07:06:02;3.63;;;0.70;;
31732;SDS011;18312;51.486;7.144;2023-01-01T07:08:30;7.10;;;1.13;;
31732;SDS011;18312;51.486;7.144;2023-01-01T07:10:57;3.22;;;1.15;;
31732;SDS011;18312;51.486;7.144;2023-01-01T07:13:24;5.57;;;1.23;;
31732;SDS011;18312;51.486;7.144;2023-01-01T07:15:51;3.10;;;1.13;;
31732;SDS011;18312;51.486;7.144;2023-01-01T07:18:18;5.63;;;1.25;;
31732;SDS011;18312;51.486;7.144;2023-01-01T07:20:47;4.95;;;1.00;;
31732;SDS011;18312;51.486;7.144;2023-01-01T07:25:42;3.30;;;0.90;;
31732;SDS011;18312;51.486;7.144;2023-01-01T07:28:09;6.10;;;1.30;;
31732;SDS011;18312;51.486;7.144;2023-01-01T07:30:37;4.72;;;1.08;;
31732;SDS011;18312;51.486;7.144;2023-01-01T07:33:03;2.72;;;1.25;;
31732;SDS011;18312;51.486;7.144;2023-01-01T07:35:30;2.35;;;0.95;;
31732;SDS011;18312;51.486;7.144;2023-01-01T07:37:59;6.60;;;1.60;;
31732;SDS011;18312;51.486;7.144;2023-01-01T07:40:26;4.35;;;0.80;;
31732;SDS011;18312;51.486;7.144;2023-01-01T07:42:54;7.47;;;1.15;;
31732;SDS011;18312;51.486;7.144;2023-01-01T07:45:21;1.95;;;0.90;;
31732;SDS011;18312;51.486;7.144;2023-01-01T07:47:47;4.45;;;0.90;;
31732;SDS011;18312;51.486;7.144;2023-01-01T07:50:17;4.75;;;1.17;;
31732;SDS011;18312;51.486;7.144;2023-01-01T07:52:45;2.17;;;1.00;;
31732;SDS011;18312;51.486;7.144;2023-01-01T07:55:12;3.38;;;1.15;;
31732;SDS011;18312;51.486;7.144;2023-01-01T07:57:40;4.78;;;1.35;;
31732;SDS011;18312;51.486;7.144;2023-01-01T08:00:09;4.70;;;1.52;;
31732;SDS011;18312;51.486;7.144;2023-01-01T08:02:39;5.55;;;1.45;;
31732;SDS011;18312;51.486;7.144;2023-01-01T08:05:06;7.68;;;1.20;;
31732;SDS011;18312;51.486;7.144;2023-01-01T08:07:33;2.80;;;1.00;;
31732;SDS011;18312;51.486;7.144;2023-01-01T08:10:00;6.35;;;1.40;;
31732;SDS011;18312;51.486;7.144;2023-01-01T08:12:27;6.43;;;1.42;;
31732;SDS011;18312;51.486;7.144;2023-01-01T08:14:54;6.35;;;1.35;;
31732;SDS011;18312;51.486;7.144;2023-01-01T08:17:22;3.95;;;1.20;;
31732;SDS011;18312;51.486;7.144;2023-01-01T08:19:48;7.03;;;1.33;;
31732;SDS011;18312;51.486;7.144;2023-01-01T08:22:16;4.47;;;1.30;;
31732;SDS011;18312;51.486;7.144;2023-01-01T08:24:43;2.85;;;1.13;;
31732;SDS011;18312;51.486;7.144;2023-01-01T08:27:11;6.90;;;1.50;;
31732;SDS011;18312;51.486;7.144;2023-01-01T08:29:39;5.13;;;1.38;;
31732;SDS011;18312;51.486;7.144;2023-01-01T08:32:06;3.13;;;0.95;;
31732;SDS011;18312;51.486;7.144;2023-01-01T08:34:34;5.95;;;1.52;;
31732;SDS011;18312;51.486;7.144;2023-01-01T08:37:01;8.02;;;2.03;;
31732;SDS011;18312;51.486;7.144;2023-01-01T08:39:27;3.35;;;1.05;;
31732;SDS011;18312;51.486;7.144;2023-01-01T08:41:55;8.48;;;1.30;;
31732;SDS011;18312;51.486;7.144;2023-01-01T08:44:21;3.40;;;1.20;;
31732;SDS011;18312;51.486;7.144;2023-01-01T08:46:48;7.10;;;0.93;;
31732;SDS011;18312;51.486;7.144;2023-01-01T08:49:17;3.90;;;1.63;;
31732;SDS011;18312;51.486;7.144;2023-01-01T08:51:46;3.67;;;1.02;;
31732;SDS011;18312;51.486;7.144;2023-01-01T08:54:12;6.90;;;1.58;;
31732;SDS011;18312;51.486;7.144;2023-01-01T08:56:39;3.95;;;1.30;;
31732;SDS011;18312;51.486;7.144;2023-01-01T08:59:06;9.05;;;1.70;;
31732;SDS011;18312;51.486;7.144;2023-01-01T09:01:32;6.47;;;1.55;;
31732;SDS011;18312;51.486;7.144;2023-01-01T09:03:59;8.10;;;1.88;;
31732;SDS011;18312;51.486;7.144;2023-01-01T09:06:26;6.70;;;1.00;;
31732;SDS011;18312;51.486;7.144;2023-01-01T09:08:54;6.43;;;1.40;;
31732;SDS011;18312;51.486;7.144;2023-01-01T09:11:22;2.22;;;1.13;;
31732;SDS011;18312;51.486;7.144;2023-01-01T09:13:50;2.33;;;1.15;;
31732;SDS011;18312;51.486;7.144;2023-01-01T09:16:17;5.20;;;1.42;;
31732;SDS011;18312;51.486;7.144;2023-01-01T09:18:44;3.50;;;0.90;;
31732;SDS011;18312;51.486;7.144;2023-01-01T09:21:11;2.95;;;1.02;;
31732;SDS011;18312;51.486;7.144;2023-01-01T09:23:37;6.63;;;1.42;;
31732;SDS011;18312;51.486;7.144;2023-01-01T09:26:06;10.88;;;1.50;;
31732;SDS011;18312;51.486;7.144;2023-01-01T09:28:34;3.05;;;1.30;;
31732;SDS011;18312;51.486;7.144;2023-01-01T09:31:02;4.32;;;1.23;;
31732;SDS011;18312;51.486;7.144;2023-01-01T09:33:30;4.07;;;1.27;;
31732;SDS011;18312;51.486;7.144;2023-01-01T09:36:10;3.05;;;1.25;;
31732;SDS011;18312;51.486;7.144;2023-01-01T09:38:37;7.93;;;1.70;;
31732;SDS011;18312;51.486;7.144;2023-01-01T09:41:07;5.90;;;1.08;;
31732;SDS011;18312;51.486;7.144;2023-01-01T09:43:43;6.20;;;1.55;;
31732;SDS011;18312;51.486;7.144;2023-01-01T09:46:18;6.47;;;0.98;;
31732;SDS011;18312;51.486;7.144;2023-01-01T09:48:50;4.95;;;1.60;;
31732;SDS011;18312;51.486;7.144;2023-01-01T09:51:21;8.05;;;1.42;;
31732;SDS011;18312;51.486;7.144;2023-01-01T09:53:50;5.97;;;1.20;;
31732;SDS011;18312;51.486;7.144;2023-01-01T09:56:26;9.02;;;1.63;;
31732;SDS011;18312;51.486;7.144;2023-01-01T09:58:54;2.03;;;1.40;;
31732;SDS011;18312;51.486;7.144;2023-01-01T10:01:26;2.38;;;0.98;;
31732;SDS011;18312;51.486;7.144;2023-01-01T10:04:01;4.70;;;1.02;;
31732;SDS011;18312;51.486;7.144;2023-01-01T10:06:37;4.22;;;1.27;;
31732;SDS011;18312;51.486;7.144;2023-01-01T10:09:11;5.80;;;1.10;;
31732;SDS011;18312;51.486;7.144;2023-01-01T10:11:49;6.88;;;1.35;;
31732;SDS011;18312;51.486;7.144;2023-01-01T10:14:23;5.38;;;1.23;;
31732;SDS011;18312;51.486;7.144;2023-01-01T10:16:55;6.25;;;1.20;;
31732;SDS011;18312;51.486;7.144;2023-01-01T10:19:26;5.47;;;1.33;;
31732;SDS011;18312;51.486;7.144;2023-01-01T10:21:58;7.03;;;1.27;;
31732;SDS011;18312;51.486;7.144;2023-01-01T10:24:31;7.70;;;1.25;;
31732;SDS011;18312;51.486;7.144;2023-01-01T10:27:04;2.53;;;1.20;;
31732;SDS011;18312;51.486;7.144;2023-01-01T10:29:35;3.85;;;1.50;;
31732;SDS011;18312;51.486;7.144;2023-01-01T10:32:13;12.38;;;1.55;;
31732;SDS011;18312;51.486;7.144;2023-01-01T10:34:42;8.20;;;1.65;;
31732;SDS011;18312;51.486;7.144;2023-01-01T10:37:09;9.73;;;1.38;;
31732;SDS011;18312;51.486;7.144;2023-01-01T10:39:39;4.85;;;1.40;;
31732;SDS011;18312;51.486;7.144;2023-01-01T10:42:09;4.88;;;1.50;;
31732;SDS011;18312;51.486;7.144;2023-01-01T10:44:37;7.63;;;1.20;;
31732;SDS011;18312;51.486;7.144;2023-01-01T10:47:09;4.43;;;1.10;;
31732;SDS011;18312;51.486;7.144;2023-01-01T10:49:52;4.30;;;1.55;;
31732;SDS011;18312;51.486;7.144;2023-01-01T10:54:49;6.40;;;1.27;;
31732;SDS011;18312;51.486;7.144;2023-01-01T10:57:19;5.10;;;1.13;;
31732;SDS011;18312;51.486;7.144;2023-01-01T10:59:54;3.97;;;1.00;;
31732;SDS011;18312;51.486;7.144;2023-01-01T11:02:45;5.13;;;1.27;;
31732;SDS011;18312;51.486;7.144;2023-01-01T11:05:13;7.40;;;1.10;;
31732;SDS011;18312;51.486;7.144;2023-01-01T11:07:42;6.68;;;0.93;;
31732;SDS011;18312;51.486;7.144;2023-01-01T11:10:15;5.85;;;1.30;;
31732;SDS011;18312;51.486;7.144;2023-01-01T11:12:45;3.95;;;1.10;;
31732;SDS011;18312;51.486;7.144;2023-01-01T11:15:19;6.78;;;1.48;;
31732;SDS011;18312;51.486;7.144;2023-01-01T11:17:48;5.63;;;1.15;;
31732;SDS011;18312;51.486;7.144;2023-01-01T11:20:16;5.90;;;1.23;;
31732;SDS011;18312;51.486;7.144;2023-01-01T11:22:46;6.57;;;1.10;;
31732;SDS011;18312;51.486;7.144;2023-01-01T11:25:20;4.82;;;1.77;;
31732;SDS011;18312;51.486;7.144;2023-01-01T11:27:50;3.08;;;1.20;;
31732;SDS011;18312;51.486;7.144;2023-01-01T11:30:20;3.60;;;1.35;;
31732;SDS011;18312;51.486;7.144;2023-01-01T11:32:49;7.30;;;1.17;;
31732;SDS011;18312;51.486;7.144;2023-01-01T11:35:20;5.47;;;1.38;;
31732;SDS011;18312;51.486;7.144;2023-01-01T11:37:48;1.27;;;1.00;;
31732;SDS011;18312;51.486;7.144;2023-01-01T11:40:17;4.47;;;0.90;;
31732;SDS011;18312;51.486;7.144;2023-01-01T11:42:48;5.95;;;1.10;;
31732;SDS011;18312;51.486;7.144;2023-01-01T11:45:18;7.18;;;1.83;;
31732;SDS011;18312;51.486;7.144;2023-01-01T11:47:49;6.53;;;1.38;;
31732;SDS011;18312;51.486;7.144;2023-01-01T11:50:22;7.22;;;1.55;;
31732;SDS011;18312;51.486;7.144;2023-01-01T11:52:54;6.47;;;1.25;;
31732;SDS011;18312;51.486;7.144;2023-01-01T11:55:24;3.25;;;1.20;;
31732;SDS011;18312;51.486;7.144;2023-01-01T11:58:04;3.92;;;1.17;;
31732;SDS011;18312;51.486;7.144;2023-01-01T12:00:36;4.82;;;1.10;;
31732;SDS011;18312;51.486;7.144;2023-01-01T12:03:08;11.40;;;1.27;;
31732;SDS011;18312;51.486;7.144;2023-01-01T12:05:43;6.47;;;1.63;;
31732;SDS011;18312;51.486;7.144;2023-01-01T12:08:18;3.53;;;1.08;;
31732;SDS011;18312;51.486;7.144;2023-01-01T12:10:50;3.08;;;1.15;;
31732;SDS011;18312;51.486;7.144;2023-01-01T12:13:25;9.05;;;1.70;;
31732;SDS011;18312;51.486;7.144;2023-01-01T12:16:00;3.50;;;1.00;;
31732;SDS011;18312;51.486;7.144;2023-01-01T12:18:33;6.55;;;1.70;;
31732;SDS011;18312;51.486;7.144;2023-01-01T12:21:06;5.70;;;1.50;;
31732;SDS011;18312;51.486;7.144;2023-01-01T12:23:38;12.18;;;1.17;;
31732;SDS011;18312;51.486;7.144;2023-01-01T12:26:09;5.30;;;1.10;;
31732;SDS011;18312;51.486;7.144;2023-01-01T12:28:50;6.07;;;1.38;;
31732;SDS011;18312;51.486;7.144;2023-01-01T12:34:15;5.45;;;1.15;;
31732;SDS011;18312;51.486;7.144;2023-01-01T12:36:47;7.18;;;1.60;;
31732;SDS011;18312;51.486;7.144;2023-01-01T12:42:14;6.72;;;1.42;;
31732;SDS011;18312;51.486;7.144;2023-01-01T12:44:49;4.70;;;1.00;;
31732;SDS011;18312;51.486;7.144;2023-01-01T12:47:31;3.22;;;1.35;;
31732;SDS011;18312;51.486;7.144;2023-01-01T12:50:08;7.30;;;2.03;;
31732;SDS011;18312;51.486;7.144;2023-01-01T12:52:45;4.93;;;1.10;;
31732;SDS011;18312;51.486;7.144;2023-01-01T12:55:42;7.53;;;1.20;;
31732;SDS011;18312;51.486;7.144;2023-01-01T12:58:23;6.60;;;1.00;;
31732;SDS011;18312;51.486;7.144;2023-01-01T13:00:58;7.28;;;1.20;;
31732;SDS011;18312;51.486;7.144;2023-01-01T13:03:30;11.32;;;1.58;;
31732;SDS011;18312;51.486;7.144;2023-01-01T13:06:01;5.03;;;1.48;;
31732;SDS011;18312;51.486;7.144;2023-01-01T13:08:29;6.22;;;1.52;;
31732;SDS011;18312;51.486;7.144;2023-01-01T13:10:58;6.50;;;1.13;;
31732;SDS011;18312;51.486;7.144;2023-01-01T13:13:27;2.75;;;1.25;;
31732;SDS011;18312;51.486;7.144;2023-01-01T13:15:54;6.10;;;1.63;;
31732;SDS011;18312;51.486;7.144;2023-01-01T13:18:30;5.43;;;1.23;;
31732;SDS011;18312;51.486;7.144;2023-01-01T13:20:59;7.38;;;1.13;;
31732;SDS011;18312;51.486;7.144;2023-01-01T13:23:41;4.95;;;0.90;;
31732;SDS011;18312;51.486;7.144;2023-01-01T13:32:02;5.57;;;1.50;;
31732;SDS011;18312;51.486;7.144;2023-01-01T13:34:33;3.15;;;1.73;;
31732;SDS011;18312;51.486;7.144;2023-01-01T13:37:24;11.27;;;1.58;;
31732;SDS011;18312;51.486;7.144;2023-01-01T13:39:55;6.95;;;1.63;;
31732;SDS011;18312;51.486;7.144;2023-01-01T13:42:36;1.85;;;0.65;;
31732;SDS011;18312;51.486;7.144;2023-01-01T13:45:12;7.07;;;1.20;;
31732;SDS011;18312;51.486;7.144;2023-01-01T13:47:50;8.23;;;1.58;;
31732;SDS011;18312;51.486;7.144;2023-01-01T13:50:35;5.18;;;0.90;;
31732;SDS011;18312;51.486;7.144;2023-01-01T13:53:15;3.65;;;1.20;;
31732;SDS011;18312;51.486;7.144;2023-01-01T13:55:57;9.40;;;1.42;;
31732;SDS011;18312;51.486;7.144;2023-01-01T13:58:41;5.28;;;0.95;;
31732;SDS011;18312;51.486;7.144;2023-01-01T14:01:35;5.47;;;1.05;;
31732;SDS011;18312;51.486;7.144;2023-01-01T14:04:11;6.55;;;1.20;;
31732;SDS011;18312;51.486;7.144;2023-01-01T14:06:56;4.00;;;1.33;;
31732;SDS011;18312;51.486;7.144;2023-01-01T14:09:25;4.45;;;1.58;;
31732;SDS011;18312;51.486;7.144;2023-01-01T14:11:52;3.42;;;1.00;;
31732;SDS011;18312;51.486;7.144;2023-01-01T14:14:23;2.53;;;1.08;;
31732;SDS011;18312;51.486;7.144;2023-01-01T14:16:52;6.05;;;0.95;;
31732;SDS011;18312;51.486;7.144;2023-01-01T14:19:21;12.63;;;1.40;;
31732;SDS011;18312;51.486;7.144;2023-01-01T14:21:49;3.83;;;1.40;;
31732;SDS011;18312;51.486;7.144;2023-01-01T14:24:19;2.15;;;0.98;;
31732;SDS011;18312;51.486;7.144;2023-01-01T14:26:47;5.35;;;1.20;;
31732;SDS011;18312;51.486;7.144;2023-01-01T14:29:15;4.82;;;1.50;;
31732;SDS011;18312;51.486;7.144;2023-01-01T14:31:46;6.13;;;1.85;;
31732;SDS011;18312;51.486;7.144;2023-01-01T14:34:14;4.03;;;1.25;;
31732;SDS011;18312;51.486;7.144;2023-01-01T14:36:48;6.60;;;1.63;;
31732;SDS011;18312;51.486;7.144;2023-01-01T14:39:24;6.90;;;1.70;;
31732;SDS011;18312;51.486;7.144;2023-01-01T14:41:53;4.93;;;1.40;;
31732;SDS011;18312;51.486;7.144;2023-01-01T14:44:24;9.02;;;1.80;;
31732;SDS011;18312;51.486;7.144;2023-01-01T14:46:55;5.72;;;1.52;;
31732;SDS011;18312;51.486;7.144;2023-01-01T14:49:23;4.53;;;1.58;;
31732;SDS011;18312;51.486;7.144;2023-01-01T14:51:55;6.00;;;1.05;;
31732;SDS011;18312;51.486;7.144;2023-01-01T14:54:28;7.78;;;1.30;;
31732;SDS011;18312;51.486;7.144;2023-01-01T14:56:58;7.60;;;1.00;;
31732;SDS011;18312;51.486;7.144;2023-01-01T14:59:26;6.75;;;1.48;;
31732;SDS011;18312;51.486;7.144;2023-01-01T15:01:57;14.32;;;1.80;;
31732;SDS011;18312;51.486;7.144;2023-01-01T15:04:25;3.47;;;1.20;;
31732;SDS011;18312;51.486;7.144;2023-01-01T15:06:52;4.20;;;1.95;;
31732;SDS011;18312;51.486;7.144;2023-01-01T15:09:19;4.78;;;1.25;;
31732;SDS011;18312;51.486;7.144;2023-01-01T15:11:48;3.38;;;1.38;;
31732;SDS011;18312;51.486;7.144;2023-01-01T15:14:30;4.40;;;1.55;;
31732;SDS011;18312;51.486;7.144;2023-01-01T15:16:59;7.35;;;2.05;;
31732;SDS011;18312;51.486;7.144;2023-01-01T15:19:27;4.72;;;1.55;;
31732;SDS011;18312;51.486;7.144;2023-01-01T15:21:54;8.07;;;1.40;;
31732;SDS011;18312;51.486;7.144;2023-01-01T15:24:21;6.88;;;1.65;;
31732;SDS011;18312;51.486;7.144;2023-01-01T15:26:53;5.65;;;1.17;;